Time;durP1;ratioP1;P1;durP2;ratioP2;P2;SDS_P1;SDS_P2;PMS_P1;PMS_P2;Temp;Humidity;BMP_temperature;BMP_pressure;BME280_temperature;BME280_humidity;BME280_pressure;Samples;Min_cycle;Max_cycle;Signal;HPM_P1;HPM_P2
2022/08/19 00:02:24;;;;;;;2.80;1.63;;;;;;;;;;5054084;28;20389;-69
2022/08/19 00:04:52;;;;;;;3.85;1.70;;;;;;;;;;5054320;28;20488;-69
2022/08/19 00:07:19;;;;;;;2.88;1.80;;;;;;;;;;5053993;28;20049;-68
2022/08/19 00:09:45;;;;;;;2.45;1.50;;;;;;;;;;5054215;28;20040;-68
2022/08/19 00:12:11;;;;;;;3.08;2.00;;;;;;;;;;5054163;28;20458;-70
2022/08/19 00:14:38;;;;;;;1.98;1.52;;;;;;;;;;5053903;28;20025;-69
2022/08/19 00:17:04;;;;;;;2.40;1.63;;;;;;;;;;5054094;28;20043;-69
2022/08/19 00:19:31;;;;;;;1.90;1.48;;;;;;;;;;5053812;28;20393;-68
2022/08/19 00:21:57;;;;;;;3.92;1.63;;;;;;;;;;5035901;28;20025;-69
2022/08/19 00:24:23;;;;;;;3.67;2.13;;;;;;;;;;5053996;28;20028;-68
2022/08/19 00:26:50;;;;;;;3.45;1.95;;;;;;;;;;5053637;28;20029;-69
2022/08/19 00:29:17;;;;;;;4.47;1.80;;;;;;;;;;5035810;28;20021;-69
2022/08/19 00:31:44;;;;;;;2.80;1.90;;;;;;;;;;5053624;28;20021;-67
2022/08/19 00:34:11;;;;;;;3.25;1.85;;;;;;;;;;5053600;28;20021;-69
2022/08/19 00:36:37;;;;;;;5.10;2.08;;;;;;;;;;5053545;28;20021;-69
2022/08/19 00:39:04;;;;;;;2.80;1.60;;;;;;;;;;5053485;28;20035;-69
2022/08/19 00:41:30;;;;;;;2.95;1.98;;;;;;;;;;5053703;28;20603;-69
2022/08/19 00:43:59;;;;;;;4.90;1.58;;;;;;;;;;5053355;28;20049;-68
2022/08/19 00:46:25;;;;;;;3.65;1.98;;;;;;;;;;5053470;28;20021;-68
2022/08/19 00:48:51;;;;;;;3.88;1.63;;;;;;;;;;5053393;28;20017;-69
2022/08/19 00:51:17;;;;;;;4.45;2.00;;;;;;;;;;5053838;28;20021;-69
2022/08/19 00:53:43;;;;;;;3.33;1.70;;;;;;;;;;5053567;28;20057;-69
2022/08/19 00:56:09;;;;;;;4.75;2.00;;;;;;;;;;5052859;28;20064;-69
2022/08/19 00:58:37;;;;;;;3.63;1.70;;;;;;;;;;5053486;28;20029;-68
2022/08/19 01:01:04;;;;;;;3.65;2.17;;;;;;;;;;5053096;28;20111;-69
2022/08/19 01:03:30;;;;;;;5.13;2.10;;;;;;;;;;5053394;28;20024;-69
2022/08/19 01:05:56;;;;;;;2.83;2.20;;;;;;;;;;5053328;28;20028;-69
2022/08/19 01:08:23;;;;;;;3.58;2.08;;;;;;;;;;5053114;28;20092;-69
2022/08/19 01:10:51;;;;;;;2.70;1.90;;;;;;;;;;5053105;28;20104;-69
2022/08/19 01:13:19;;;;;;;4.53;2.08;;;;;;;;;;5053646;28;20024;-68
2022/08/19 01:15:46;;;;;;;2.67;2.03;;;;;;;;;;5053328;28;20033;-69
2022/08/19 01:18:14;;;;;;;2.58;1.60;;;;;;;;;;5053288;28;20095;-69
2022/08/19 01:20:41;;;;;;;2.95;1.80;;;;;;;;;;5052984;28;20025;-69
2022/08/19 01:23:07;;;;;;;6.80;2.15;;;;;;;;;;5053548;28;20025;-69
2022/08/19 01:25:36;;;;;;;2.67;1.80;;;;;;;;;;5053435;28;20113;-69
2022/08/19 01:28:03;;;;;;;4.32;2.00;;;;;;;;;;5053002;28;20389;-68
2022/08/19 01:30:32;;;;;;;2.63;1.80;;;;;;;;;;5053417;28;20048;-68
2022/08/19 01:32:59;;;;;;;3.15;1.85;;;;;;;;;;5052856;28;20386;-68
2022/08/19 01:35:26;;;;;;;3.40;1.80;;;;;;;;;;5052852;28;20492;-68
2022/08/19 01:37:54;;;;;;;3.85;2.10;;;;;;;;;;5034962;28;20021;-68
2022/08/19 01:40:21;;;;;;;2.13;1.92;;;;;;;;;;5052791;28;20021;-69
2022/08/19 01:42:48;;;;;;;1.60;1.48;;;;;;;;;;5053052;28;20477;-69
2022/08/19 01:45:14;;;;;;;3.15;1.98;;;;;;;;;;5052988;28;20099;-68
2022/08/19 01:47:40;;;;;;;2.47;1.60;;;;;;;;;;5034842;28;20171;-68
2022/08/19 01:50:08;;;;;;;6.20;1.83;;;;;;;;;;5053247;28;20021;-69
2022/08/19 01:52:35;;;;;;;3.00;2.05;;;;;;;;;;5052693;28;20021;-69
2022/08/19 01:55:01;;;;;;;3.00;1.80;;;;;;;;;;5052450;28;20060;-69
2022/08/19 01:57:28;;;;;;;2.83;1.75;;;;;;;;;;5055045;28;20112;-69
2022/08/19 01:59:54;;;;;;;3.03;1.52;;;;;;;;;;5056447;28;20035;-69
2022/08/19 02:02:20;;;;;;;4.30;1.73;;;;;;;;;;5056291;28;20025;-68
2022/08/19 02:04:46;;;;;;;3.40;1.90;;;;;;;;;;5056365;28;20017;-68
2022/08/19 02:07:12;;;;;;;3.45;1.88;;;;;;;;;;5056772;28;20351;-69
2022/08/19 02:09:38;;;;;;;2.65;1.95;;;;;;;;;;5056289;28;20017;-69
2022/08/19 02:12:05;;;;;;;3.67;2.03;;;;;;;;;;5056177;28;20021;-68
2022/08/19 02:14:31;;;;;;;4.22;1.90;;;;;;;;;;5056414;28;20040;-69
2022/08/19 02:16:57;;;;;;;6.35;4.13;;;;;;;;;;5056103;28;20470;-69
2022/08/19 02:19:23;;;;;;;3.58;1.95;;;;;;;;;;5056385;28;20487;-69
2022/08/19 02:21:49;;;;;;;2.95;1.52;;;;;;;;;;5056102;28;20032;-69
2022/08/19 02:24:15;;;;;;;2.97;1.92;;;;;;;;;;5056044;28;20025;-68
2022/08/19 02:26:41;;;;;;;3.47;1.83;;;;;;;;;;5055922;28;20025;-69
2022/08/19 02:29:07;;;;;;;2.67;1.75;;;;;;;;;;5056203;28;20017;-69
2022/08/19 02:31:33;;;;;;;4.05;2.35;;;;;;;;;;5055926;28;20083;-69
2022/08/19 02:34:00;;;;;;;2.35;1.70;;;;;;;;;;5055822;28;20100;-69
2022/08/19 02:36:27;;;;;;;2.60;1.70;;;;;;;;;;5055802;28;20071;-68
2022/08/19 02:38:53;;;;;;;4.18;2.22;;;;;;;;;;5056034;28;20025;-68
2022/08/19 02:41:21;;;;;;;2.85;1.73;;;;;;;;;;5055691;28;20082;-68
2022/08/19 02:43:47;;;;;;;2.90;1.75;;;;;;;;;;5055939;28;20028;-69
2022/08/19 02:46:20;;;;;;;3.28;1.75;;;;;;;;;;5055776;28;20112;-69
2022/08/19 02:48:46;;;;;;;2.35;1.75;;;;;;;;;;5037428;28;20021;-68
2022/08/19 02:51:16;;;;;;;2.35;1.73;;;;;;;;;;5056275;28;20075;-68
2022/08/19 02:53:42;;;;;;;3.83;1.67;;;;;;;;;;5056052;28;20025;-69
2022/08/19 02:56:08;;;;;;;2.30;1.52;;;;;;;;;;5054996;28;20076;-69
2022/08/19 02:58:35;;;;;;;4.72;2.15;;;;;;;;;;5055541;28;20056;-68
2022/08/19 03:01:01;;;;;;;4.03;1.98;;;;;;;;;;5055250;28;20029;-69
2022/08/19 03:03:28;;;;;;;3.72;2.55;;;;;;;;;;5055238;28;20037;-68
2022/08/19 03:06:03;;;;;;;2.80;2.08;;;;;;;;;;5055407;28;20025;-69
2022/08/19 03:08:29;;;;;;;2.83;1.90;;;;;;;;;;5054740;28;20111;-68
2022/08/19 03:10:55;;;;;;;4.43;2.22;;;;;;;;;;5055134;28;20018;-68
2022/08/19 03:13:23;;;;;;;3.55;2.20;;;;;;;;;;5055376;28;20028;-69
2022/08/19 03:15:49;;;;;;;3.90;2.17;;;;;;;;;;5055063;28;20021;-69
2022/08/19 03:18:16;;;;;;;3.78;2.00;;;;;;;;;;5055007;28;20123;-69
2022/08/19 03:20:44;;;;;;;4.55;2.40;;;;;;;;;;5055000;28;20497;-69
2022/08/19 03:23:10;;;;;;;3.92;2.30;;;;;;;;;;5036985;28;20401;-69
2022/08/19 03:25:42;;;;;;;3.60;2.15;;;;;;;;;;5054773;28;20474;-69
2022/08/19 03:28:08;;;;;;;3.38;1.90;;;;;;;;;;5055372;28;20480;-69
2022/08/19 03:30:34;;;;;;;3.60;2.20;;;;;;;;;;5054762;28;20040;-69
2022/08/19 03:33:01;;;;;;;3.90;2.10;;;;;;;;;;5054964;28;20040;-69
2022/08/19 03:35:27;;;;;;;2.58;1.90;;;;;;;;;;5054915;28;20029;-68
2022/08/19 03:37:53;;;;;;;2.60;1.90;;;;;;;;;;5055162;28;20040;-68
2022/08/19 03:40:19;;;;;;;4.45;2.38;;;;;;;;;;5054821;28;20029;-69
2022/08/19 03:42:46;;;;;;;3.10;1.98;;;;;;;;;;5054517;28;20025;-69
2022/08/19 03:45:12;;;;;;;3.70;2.35;;;;;;;;;;5055004;28;20025;-69
2022/08/19 03:47:38;;;;;;;2.83;2.10;;;;;;;;;;5054665;28;20462;-69
2022/08/19 03:50:04;;;;;;;4.38;2.10;;;;;;;;;;5054920;28;20394;-69
2022/08/19 03:52:30;;;;;;;3.88;2.30;;;;;;;;;;5054578;28;20458;-68
2022/08/19 03:54:56;;;;;;;3.65;1.90;;;;;;;;;;5054080;28;20049;-69
2022/08/19 03:57:22;;;;;;;3.33;2.10;;;;;;;;;;5054208;28;20504;-68
2022/08/19 03:59:48;;;;;;;3.70;2.13;;;;;;;;;;5054455;28;20147;-69
2022/08/19 04:02:14;;;;;;;3.78;2.13;;;;;;;;;;5054059;28;20075;-68
2022/08/19 04:04:42;;;;;;;4.90;2.15;;;;;;;;;;5036238;28;20029;-68
2022/08/19 04:07:09;;;;;;;3.70;2.10;;;;;;;;;;5054258;28;20021;-68
2022/08/19 04:09:38;;;;;;;3.00;2.15;;;;;;;;;;5053982;28;20021;-69
2022/08/19 04:12:05;;;;;;;2.60;1.90;;;;;;;;;;5053995;28;20028;-68
2022/08/19 04:14:31;;;;;;;4.50;2.35;;;;;;;;;;5053932;28;20036;-69
2022/08/19 04:16:58;;;;;;;3.50;2.40;;;;;;;;;;5054156;28;20033;-69
2022/08/19 04:19:24;;;;;;;3.55;2.13;;;;;;;;;;5052996;28;20028;-69
2022/08/19 04:21:52;;;;;;;2.95;2.15;;;;;;;;;;5054061;28;20029;-69
2022/08/19 04:24:18;;;;;;;2.35;1.88;;;;;;;;;;5035900;28;20056;-68
2022/08/19 04:26:46;;;;;;;3.72;2.45;;;;;;;;;;5053902;28;20040;-70
2022/08/19 04:29:14;;;;;;;3.72;2.20;;;;;;;;;;5053986;28;20025;-69
2022/08/19 04:31:41;;;;;;;5.82;2.75;;;;;;;;;;5053610;28;20021;-69
2022/08/19 04:34:10;;;;;;;4.47;2.35;;;;;;;;;;5053580;28;20017;-68
2022/08/19 04:36:37;;;;;;;3.53;2.08;;;;;;;;;;5054136;28;20025;-68
2022/08/19 04:39:05;;;;;;;4.40;2.47;;;;;;;;;;5053557;28;20032;-68
2022/08/19 04:44:19;;;;;;;4.82;2.40;;;;;;;;;;5053451;28;20504;-69
2022/08/19 04:46:48;;;;;;;3.33;2.40;;;;;;;;;;5053301;28;20397;-69
2022/08/19 04:49:16;;;;;;;5.90;2.72;;;;;;;;;;5053647;28;20166;-69
2022/08/19 04:51:43;;;;;;;4.75;2.63;;;;;;;;;;5053866;28;20024;-69
2022/08/19 04:54:09;;;;;;;4.40;2.53;;;;;;;;;;5053333;28;20362;-69
2022/08/19 04:56:36;;;;;;;4.15;2.70;;;;;;;;;;5053244;28;20036;-68
2022/08/19 04:59:05;;;;;;;4.35;2.53;;;;;;;;;;5053189;28;20500;-68
2022/08/19 05:01:32;;;;;;;3.38;2.25;;;;;;;;;;5053120;28;20103;-68
2022/08/19 05:04:00;;;;;;;5.18;2.70;;;;;;;;;;5035317;28;20439;-68
2022/08/19 05:06:26;;;;;;;5.13;2.90;;;;;;;;;;5035195;28;20474;-69
2022/08/19 05:08:52;;;;;;;4.72;2.42;;;;;;;;;;5053135;28;20025;-68
2022/08/19 05:11:26;;;;;;;4.90;2.50;;;;;;;;;;5053103;28;20028;-68
2022/08/19 05:13:52;;;;;;;4.47;2.30;;;;;;;;;;5053390;28;20021;-69
2022/08/19 05:16:20;;;;;;;6.35;2.60;;;;;;;;;;5053083;28;20489;-68
2022/08/19 05:24:17;;;;;;;5.70;3.00;;;;;;;;;;5053587;28;20532;-69
2022/08/19 05:26:47;;;;;;;4.63;2.20;;;;;;;;;;5052852;28;20068;-69
2022/08/19 05:29:15;;;;;;;8.50;2.75;;;;;;;;;;5053521;28;20025;-69
2022/08/19 05:31:42;;;;;;;4.93;2.33;;;;;;;;;;5056082;28;20032;-69
2022/08/19 05:34:09;;;;;;;4.20;2.30;;;;;;;;;;5056943;28;20049;-69
2022/08/19 05:36:45;;;;;;;3.90;2.50;;;;;;;;;;5057169;28;20082;-68
2022/08/19 05:39:13;;;;;;;6.00;2.42;;;;;;;;;;5056931;28;20032;-69
2022/08/19 05:41:43;;;;;;;3.72;2.40;;;;;;;;;;5057318;28;20025;-68
2022/08/19 05:44:09;;;;;;;;;;;;;;;;;;5057173;28;20031;-68
2022/08/19 05:46:40;;;;;;;4.50;2.80;;;;;;;;;;5056953;28;19915;-69
2022/08/19 05:49:06;;;;;;;8.68;2.85;;;;;;;;;;5038504;28;20397;-68
2022/08/19 05:51:33;;;;;;;5.90;2.42;;;;;;;;;;5057140;28;20470;-68
2022/08/19 05:54:00;;;;;;;5.18;2.63;;;;;;;;;;5056430;28;20067;-68
2022/08/19 05:56:26;;;;;;;7.90;2.67;;;;;;;;;;5056564;28;20036;-68
2022/08/19 05:58:53;;;;;;;4.05;2.50;;;;;;;;;;5056775;28;20025;-68
2022/08/19 06:01:20;;;;;;;6.68;2.72;;;;;;;;;;5056414;28;20108;-68
2022/08/19 06:03:47;;;;;;;8.23;3.05;;;;;;;;;;5056665;28;20099;-68
2022/08/19 06:06:14;;;;;;;5.95;2.75;;;;;;;;;;5038497;28;20577;-69
2022/08/19 06:08:42;;;;;;;5.75;3.22;;;;;;;;;;5056394;28;20040;-68
2022/08/19 06:11:34;;;;;;;6.95;3.20;;;;;;;;;;5056584;28;20103;-68
2022/08/19 06:14:02;;;;;;;5.20;3.00;;;;;;;;;;5051503;28;20440;-68
2022/08/19 06:16:28;;;;;;;6.45;3.17;;;;;;;;;;5056164;28;20033;-68
2022/08/19 06:18:56;;;;;;;6.47;3.08;;;;;;;;;;5056207;28;20025;-68
2022/08/19 06:21:23;;;;;;;8.10;3.53;;;;;;;;;;5056387;28;20393;-68
2022/08/19 06:23:50;;;;;;;5.57;3.00;;;;;;;;;;5056078;28;20025;-69
2022/08/19 06:26:18;;;;;;;7.55;3.40;;;;;;;;;;5055946;28;20025;-69
2022/08/19 06:28:46;;;;;;;6.65;3.30;;;;;;;;;;5056186;28;20029;-68
2022/08/19 06:31:14;;;;;;;5.97;2.65;;;;;;;;;;5055946;28;20028;-68
2022/08/19 06:33:40;;;;;;;7.25;3.08;;;;;;;;;;5056443;28;20041;-69
2022/08/19 06:36:06;;;;;;;6.43;3.13;;;;;;;;;;5056074;28;20507;-68
2022/08/19 06:38:36;;;;;;;7.68;3.15;;;;;;;;;;5055791;28;20107;-69
2022/08/19 06:41:03;;;;;;;8.23;3.63;;;;;;;;;;5056301;28;20060;-69
2022/08/19 06:43:29;;;;;;;6.72;2.75;;;;;;;;;;5054775;28;20036;-69
2022/08/19 06:45:55;;;;;;;8.57;3.60;;;;;;;;;;5055597;28;20029;-69
2022/08/19 06:48:21;;;;;;;5.72;3.00;;;;;;;;;;5055625;28;20017;-69
2022/08/19 06:50:48;;;;;;;8.65;3.55;;;;;;;;;;5056038;28;20071;-67
2022/08/19 06:53:14;;;;;;;5.95;3.17;;;;;;;;;;5055779;28;20071;-69
2022/08/19 06:55:40;;;;;;;7.15;3.88;;;;;;;;;;5055235;28;20456;-69
2022/08/19 06:58:06;;;;;;;9.63;4.15;;;;;;;;;;5055434;28;20021;-69
2022/08/19 07:00:32;;;;;;;11.65;4.13;;;;;;;;;;5055281;28;20083;-69
2022/08/19 07:03:00;;;;;;;8.15;3.30;;;;;;;;;;5055612;28;20025;-68
2022/08/19 07:05:26;;;;;;;8.25;3.60;;;;;;;;;;5055225;28;20029;-69
2022/08/19 07:07:52;;;;;;;9.43;3.80;;;;;;;;;;5055211;28;20100;-69
2022/08/19 07:10:18;;;;;;;9.82;3.78;;;;;;;;;;5037270;28;20405;-67
2022/08/19 07:12:45;;;;;;;13.20;3.70;;;;;;;;;;5037226;28;20055;-68
2022/08/19 07:15:11;;;;;;;8.20;4.07;;;;;;;;;;5037171;28;20077;-69
2022/08/19 07:17:39;;;;;;;12.20;4.10;;;;;;;;;;5055318;28;20438;-69
2022/08/19 07:20:06;;;;;;;9.45;3.90;;;;;;;;;;5054990;28;20017;-68
2022/08/19 07:22:33;;;;;;;8.13;3.80;;;;;;;;;;5037089;28;20021;-68
2022/08/19 07:24:59;;;;;;;10.40;3.95;;;;;;;;;;5054951;28;20021;-69
2022/08/19 07:27:25;;;;;;;9.05;3.83;;;;;;;;;;5054756;28;20070;-70
2022/08/19 07:29:53;;;;;;;8.63;3.92;;;;;;;;;;5054770;28;20065;-68
2022/08/19 07:32:19;;;;;;;11.07;3.90;;;;;;;;;;5055232;28;20025;-70
2022/08/19 07:34:45;;;;;;;11.40;3.95;;;;;;;;;;5054971;28;20025;-72
2022/08/19 07:37:11;;;;;;;9.02;3.88;;;;;;;;;;5036737;28;20402;-71
2022/08/19 07:39:37;;;;;;;9.95;4.20;;;;;;;;;;5054567;28;20032;-68
2022/08/19 07:42:06;;;;;;;8.65;3.70;;;;;;;;;;5055117;28;20052;-69
2022/08/19 07:44:33;;;;;;;10.23;3.38;;;;;;;;;;5054822;28;20054;-69
2022/08/19 07:46:59;;;;;;;8.27;3.85;;;;;;;;;;5054678;28;20056;-66
2022/08/19 07:49:26;;;;;;;9.38;3.75;;;;;;;;;;5054956;28;20021;-69
2022/08/19 07:51:57;;;;;;;8.50;3.50;;;;;;;;;;5054868;28;20032;-68
2022/08/19 07:54:24;;;;;;;9.07;3.78;;;;;;;;;;5054060;28;20520;-67
2022/08/19 07:56:50;;;;;;;8.32;3.60;;;;;;;;;;5054278;28;20032;-68
2022/08/19 07:59:17;;;;;;;8.43;2.95;;;;;;;;;;5054287;28;20021;-68
2022/08/19 08:01:44;;;;;;;8.23;3.30;;;;;;;;;;5054099;28;20017;-67
2022/08/19 08:09:41;;;;;;;5.03;2.83;;;;;;;;;;5054657;28;20036;-72
2022/08/19 08:12:10;;;;;;;6.25;2.63;;;;;;;;;;5054257;28;20017;-70
2022/08/19 08:14:38;;;;;;;5.55;2.80;;;;;;;;;;5054281;28;20021;-67
2022/08/19 08:17:05;;;;;;;6.45;2.40;;;;;;;;;;5054049;28;20057;-70
2022/08/19 08:19:31;;;;;;;5.35;2.58;;;;;;;;;;5054122;28;20029;-69
2022/08/19 08:21:58;;;;;;;7.47;2.63;;;;;;;;;;5053801;28;20473;-69
2022/08/19 08:24:26;;;;;;;8.00;2.70;;;;;;;;;;5053777;28;20440;-68
2022/08/19 08:26:52;;;;;;;4.55;2.35;;;;;;;;;;5053666;28;20469;-70
2022/08/19 08:29:19;;;;;;;6.63;2.70;;;;;;;;;;5053987;28;20029;-70
2022/08/19 08:31:45;;;;;;;11.82;3.03;;;;;;;;;;5053672;28;20021;-70
2022/08/19 08:34:12;;;;;;;5.32;2.92;;;;;;;;;;5054200;28;20025;-70
2022/08/19 08:36:42;;;;;;;10.65;3.60;;;;;;;;;;5053582;28;20029;-68
2022/08/19 08:39:12;;;;;;;5.22;2.50;;;;;;;;;;5053536;28;20036;-68
2022/08/19 08:41:38;;;;;;;;;;;;;;;;;;5054202;28;20017;-69
2022/08/19 08:44:04;;;;;;;23.83;4.82;;;;;;;;;;5053444;28;20384;-70
2022/08/19 08:46:33;;;;;;;16.65;4.78;;;;;;;;;;5053881;28;20477;-69
2022/08/19 08:49:18;;;;;;;17.58;4.22;;;;;;;;;;5053719;28;20021;-68
2022/08/19 08:51:47;;;;;;;8.88;3.60;;;;;;;;;;5054404;28;20402;-70
2022/08/19 08:54:14;;;;;;;9.30;3.13;;;;;;;;;;5053392;28;20027;-70
2022/08/19 08:56:42;;;;;;;4.00;2.40;;;;;;;;;;5053880;28;20108;-68
2022/08/19 08:59:13;;;;;;;5.53;2.30;;;;;;;;;;5053252;28;20108;-70
2022/08/19 09:01:39;;;;;;;5.47;3.00;;;;;;;;;;5053189;28;20025;-68
2022/08/19 09:04:06;;;;;;;5.72;2.30;;;;;;;;;;5035307;28;20017;-69
2022/08/19 09:06:37;;;;;;;5.65;2.58;;;;;;;;;;5052655;28;20021;-69
2022/08/19 09:09:03;;;;;;;6.65;2.45;;;;;;;;;;5053459;28;20028;-69
2022/08/19 09:11:29;;;;;;;6.93;2.30;;;;;;;;;;5053142;28;20049;-68
2022/08/19 09:13:58;;;;;;;5.40;2.30;;;;;;;;;;5053067;28;20056;-70
2022/08/19 09:16:27;;;;;;;3.97;2.20;;;;;;;;;;5053356;28;20037;-70
2022/08/19 09:18:55;;;;;;;5.47;2.15;;;;;;;;;;5053087;28;20021;-69
2022/08/19 09:21:22;;;;;;;6.45;1.98;;;;;;;;;;5035135;28;20029;-70
2022/08/19 09:23:48;;;;;;;4.80;1.80;;;;;;;;;;5053315;28;20047;-68
2022/08/19 09:26:16;;;;;;;6.47;3.75;;;;;;;;;;5053132;28;20029;-71
2022/08/19 09:28:43;;;;;;;3.33;2.03;;;;;;;;;;5052955;28;20078;-69
2022/08/19 09:31:10;;;;;;;5.72;2.20;;;;;;;;;;5053535;28;20029;-70
2022/08/19 09:33:36;;;;;;;5.35;2.20;;;;;;;;;;5053149;28;20466;-70
2022/08/19 09:36:10;;;;;;;8.32;2.40;;;;;;;;;;5034976;28;20029;-69
2022/08/19 09:38:38;;;;;;;6.35;1.90;;;;;;;;;;5053346;28;20385;-68
2022/08/19 09:41:05;;;;;;;4.50;1.98;;;;;;;;;;5035015;28;20044;-70
2022/08/19 09:43:33;;;;;;;6.15;2.47;;;;;;;;;;5053439;28;20024;-70
2022/08/19 09:46:00;;;;;;;6.72;2.30;;;;;;;;;;5053064;28;20029;-69
2022/08/19 09:48:26;;;;;;;7.65;2.80;;;;;;;;;;5052854;28;20093;-72
2022/08/19 09:50:52;;;;;;;7.97;2.20;;;;;;;;;;5053502;28;20404;-68
2022/08/19 09:53:18;;;;;;;2.92;1.60;;;;;;;;;;5053311;28;20028;-69
2022/08/19 09:55:44;;;;;;;4.57;1.83;;;;;;;;;;5052588;28;20416;-71
2022/08/19 09:58:10;;;;;;;5.88;2.00;;;;;;;;;;5052686;28;20059;-68
2022/08/19 10:00:38;;;;;;;5.43;1.90;;;;;;;;;;5052625;28;20052;-68
2022/08/19 10:03:04;;;;;;;5.22;2.03;;;;;;;;;;5052507;28;20055;-71
2022/08/19 10:05:49;;;;;;;9.55;2.17;;;;;;;;;;5052527;28;20057;-75
2022/08/19 10:08:22;;;;;;;6.97;2.28;;;;;;;;;;5052621;28;20025;-75
2022/08/19 10:10:50;;;;;;;5.97;2.38;;;;;;;;;;5052908;28;20460;-70
2022/08/19 10:13:17;;;;;;;4.97;2.10;;;;;;;;;;5052524;28;20021;-68
2022/08/19 10:15:43;;;;;;;6.10;2.13;;;;;;;;;;5034158;28;20401;-68
2022/08/19 10:18:09;;;;;;;5.28;1.85;;;;;;;;;;5054069;28;20032;-69
2022/08/19 10:20:36;;;;;;;5.72;2.22;;;;;;;;;;5056435;28;20028;-68
2022/08/19 10:23:02;;;;;;;3.00;1.85;;;;;;;;;;5056069;28;20489;-68
2022/08/19 10:25:28;;;;;;;6.10;1.73;;;;;;;;;;5055976;28;20032;-69
2022/08/19 10:27:54;;;;;;;3.63;1.50;;;;;;;;;;5055885;28;20028;-67
2022/08/19 10:30:21;;;;;;;5.20;1.83;;;;;;;;;;5056089;28;20025;-68
2022/08/19 10:32:47;;;;;;;5.03;1.73;;;;;;;;;;5055884;28;20025;-68
2022/08/19 10:35:14;;;;;;;3.55;1.70;;;;;;;;;;5055874;28;20075;-68
2022/08/19 10:37:40;;;;;;;3.78;1.65;;;;;;;;;;5038455;28;20024;-69
2022/08/19 10:40:07;;;;;;;3.20;1.70;;;;;;;;;;5056030;28;20052;-70
2022/08/19 10:42:34;;;;;;;4.20;1.98;;;;;;;;;;5055781;28;20028;-67
2022/08/19 10:45:00;;;;;;;3.15;1.40;;;;;;;;;;5055937;28;20052;-68
2022/08/19 10:47:26;;;;;;;5.75;1.70;;;;;;;;;;5055832;28;20028;-68
2022/08/19 10:52:40;;;;;;;2.17;1.65;;;;;;;;;;5056333;28;20028;-69
2022/08/19 10:57:52;;;;;;;3.40;1.30;;;;;;;;;;5055510;28;20567;-68
2022/08/19 11:00:19;;;;;;;3.20;1.40;;;;;;;;;;5055358;28;20029;-69
2022/08/19 11:02:45;;;;;;;2.60;1.17;;;;;;;;;;5055356;28;20021;-70
2022/08/19 11:05:11;;;;;;;1.13;1.10;;;;;;;;;;5055341;28;20025;-68
2022/08/19 11:07:41;;;;;;;3.03;1.25;;;;;;;;;;5055460;28;20029;-68
2022/08/19 11:10:07;;;;;;;1.37;1.03;;;;;;;;;;5055182;28;20056;-69
2022/08/19 11:12:33;;;;;;;3.22;1.10;;;;;;;;;;5055207;28;20025;-68
2022/08/19 11:15:00;;;;;;;0.65;0.65;;;;;;;;;;5055465;28;20021;-69
2022/08/19 11:17:26;;;;;;;2.72;1.23;;;;;;;;;;5055574;28;20029;-67
2022/08/19 11:19:52;;;;;;;3.08;0.88;;;;;;;;;;5055014;28;20496;-68
2022/08/19 11:22:18;;;;;;;1.52;1.00;;;;;;;;;;5055256;28;20029;-69
2022/08/19 11:24:44;;;;;;;2.25;1.00;;;;;;;;;;5054968;28;20024;-69
2022/08/19 11:27:11;;;;;;;4.75;1.27;;;;;;;;;;5036969;28;20428;-69
2022/08/19 11:29:39;;;;;;;4.47;1.50;;;;;;;;;;5054453;28;20030;-67
2022/08/19 11:32:07;;;;;;;2.75;1.30;;;;;;;;;;5054765;28;20025;-67
2022/08/19 11:34:34;;;;;;;2.35;0.90;;;;;;;;;;5054806;28;20024;-68
2022/08/19 11:37:01;;;;;;;3.38;1.00;;;;;;;;;;5055032;28;20056;-68
2022/08/19 11:39:28;;;;;;;1.45;0.82;;;;;;;;;;5054970;28;20036;-68
2022/08/19 11:41:54;;;;;;;2.00;0.88;;;;;;;;;;5055234;28;20033;-69
2022/08/19 11:44:20;;;;;;;0.80;0.70;;;;;;;;;;5054644;28;20025;-67
2022/08/19 11:46:46;;;;;;;0.70;0.40;;;;;;;;;;5054475;28;20075;-68
2022/08/19 11:49:14;;;;;;;1.17;0.90;;;;;;;;;;5054463;28;20045;-68
2022/08/19 11:51:41;;;;;;;0.60;0.60;;;;;;;;;;5054916;28;20025;-69
2022/08/19 11:54:07;;;;;;;1.50;0.65;;;;;;;;;;5054201;28;20502;-69
2022/08/19 11:56:34;;;;;;;1.55;0.68;;;;;;;;;;5054391;28;20087;-68
2022/08/19 11:59:01;;;;;;;2.72;0.80;;;;;;;;;;5054290;28;20473;-69
2022/08/19 12:01:27;;;;;;;0.77;0.60;;;;;;;;;;5054187;28;20428;-68
2022/08/19 12:03:54;;;;;;;0.85;0.77;;;;;;;;;;5054212;28;20025;-69
2022/08/19 12:06:28;;;;;;;0.80;0.60;;;;;;;;;;5054311;28;20427;-70
2022/08/19 12:08:55;;;;;;;1.48;1.08;;;;;;;;;;5054741;28;20032;-68
2022/08/19 12:11:21;;;;;;;1.27;1.00;;;;;;;;;;5054361;28;20025;-68
2022/08/19 12:13:47;;;;;;;1.20;0.88;;;;;;;;;;5054085;28;20104;-68
2022/08/19 12:16:18;;;;;;;1.60;1.10;;;;;;;;;;5054019;28;20080;-68
2022/08/19 12:18:46;;;;;;;2.50;0.85;;;;;;;;;;5054218;28;20366;-68
2022/08/19 12:21:13;;;;;;;2.20;1.10;;;;;;;;;;5053884;28;20021;-70
2022/08/19 12:23:39;;;;;;;1.08;0.80;;;;;;;;;;5054177;28;20127;-69
2022/08/19 12:26:06;;;;;;;3.75;1.23;;;;;;;;;;5053715;28;20032;-68
2022/08/19 12:28:32;;;;;;;2.13;1.17;;;;;;;;;;5053981;28;20100;-68
2022/08/19 12:30:58;;;;;;;3.70;1.20;;;;;;;;;;5053670;28;20036;-70
2022/08/19 12:33:27;;;;;;;5.10;1.08;;;;;;;;;;5053643;28;20021;-69
2022/08/19 12:35:53;;;;;;;1.83;1.20;;;;;;;;;;5053655;28;20024;-69
2022/08/19 12:38:22;;;;;;;2.67;1.15;;;;;;;;;;5053597;28;20025;-68
2022/08/19 12:40:51;;;;;;;3.38;1.23;;;;;;;;;;5052829;28;20048;-70
2022/08/19 12:43:17;;;;;;;2.38;1.30;;;;;;;;;;5053547;28;20389;-69
2022/08/19 12:45:44;;;;;;;6.72;1.77;;;;;;;;;;5035532;28;20028;-69
2022/08/19 12:48:10;;;;;;;2.97;1.10;;;;;;;;;;5035582;28;20025;-68
2022/08/19 12:50:39;;;;;;;3.78;1.52;;;;;;;;;;5053994;28;20385;-68
2022/08/19 12:53:05;;;;;;;3.33;1.42;;;;;;;;;;5053853;28;20022;-70
2022/08/19 12:55:31;;;;;;;2.67;1.20;;;;;;;;;;5053282;28;20098;-69
2022/08/19 12:57:57;;;;;;;2.85;1.10;;;;;;;;;;5053291;28;20118;-70
2022/08/19 13:00:23;;;;;;;2.92;1.50;;;;;;;;;;5053172;28;20410;-69
2022/08/19 13:02:51;;;;;;;1.80;0.90;;;;;;;;;;5053506;28;20029;-69
2022/08/19 13:05:22;;;;;;;4.88;1.30;;;;;;;;;;5035338;28;20025;-67
2022/08/19 13:07:48;;;;;;;3.03;1.38;;;;;;;;;;5053150;28;20037;-68
2022/08/19 13:10:16;;;;;;;2.75;1.45;;;;;;;;;;5053397;28;20032;-68
2022/08/19 13:12:42;;;;;;;1.25;1.10;;;;;;;;;;5053400;28;20021;-69
2022/08/19 13:15:09;;;;;;;1.70;1.00;;;;;;;;;;5053645;28;20028;-70
2022/08/19 13:17:35;;;;;;;3.25;1.13;;;;;;;;;;5053325;28;20025;-67
2022/08/19 13:20:02;;;;;;;5.40;1.60;;;;;;;;;;5053068;28;20029;-70
2022/08/19 13:22:28;;;;;;;2.90;1.02;;;;;;;;;;5053312;28;20025;-67
2022/08/19 13:24:54;;;;;;;3.03;1.02;;;;;;;;;;5053242;28;20078;-68
2022/08/19 13:27:20;;;;;;;1.00;0.80;;;;;;;;;;5053204;28;20053;-68
2022/08/19 13:35:15;;;;;;;4.22;1.52;;;;;;;;;;5053247;28;20086;-68
2022/08/19 13:37:41;;;;;;;1.30;0.80;;;;;;;;;;5052921;28;20025;-68
2022/08/19 13:40:14;;;;;;;2.30;0.75;;;;;;;;;;5053161;28;20025;-68
2022/08/19 13:42:40;;;;;;;0.82;0.70;;;;;;;;;;5053209;28;20017;-69
2022/08/19 13:45:07;;;;;;;1.73;0.88;;;;;;;;;;5053103;28;20036;-69
2022/08/19 13:47:34;;;;;;;0.82;0.70;;;;;;;;;;5052768;28;20099;-69
2022/08/19 13:50:00;;;;;;;0.68;0.68;;;;;;;;;;5053100;28;20021;-69
2022/08/19 13:52:26;;;;;;;1.40;1.00;;;;;;;;;;5055382;28;20481;-68
2022/08/19 13:54:53;;;;;;;3.00;1.00;;;;;;;;;;5056436;28;20041;-69
2022/08/19 13:57:19;;;;;;;1.95;1.33;;;;;;;;;;5056871;28;20096;-68
2022/08/19 13:59:45;;;;;;;4.60;3.60;;;;;;;;;;5056605;28;20033;-69
2022/08/19 14:02:11;;;;;;;4.00;1.45;;;;;;;;;;5056478;28;20020;-69
2022/08/19 14:04:37;;;;;;;2.65;1.33;;;;;;;;;;5056457;28;20475;-69
2022/08/19 14:07:04;;;;;;;2.42;1.30;;;;;;;;;;5056625;28;20021;-68
2022/08/19 14:09:30;;;;;;;2.00;1.08;;;;;;;;;;5056675;28;20029;-70
2022/08/19 14:11:57;;;;;;;2.38;1.17;;;;;;;;;;5056344;28;20025;-68
2022/08/19 14:14:23;;;;;;;1.38;1.27;;;;;;;;;;5056297;28;20025;-69
2022/08/19 14:16:49;;;;;;;1.27;1.02;;;;;;;;;;5056257;28;20469;-69
2022/08/19 14:19:15;;;;;;;2.20;1.00;;;;;;;;;;5038217;28;20573;-69
2022/08/19 14:21:41;;;;;;;1.75;0.93;;;;;;;;;;5056174;28;20075;-68
2022/08/19 14:24:08;;;;;;;1.40;1.20;;;;;;;;;;5056092;28;20029;-69
2022/08/19 14:26:34;;;;;;;1.65;0.90;;;;;;;;;;5055984;28;20501;-69
2022/08/19 14:29:01;;;;;;;2.63;1.02;;;;;;;;;;5056008;28;20398;-69
2022/08/19 14:31:27;;;;;;;2.20;1.10;;;;;;;;;;5056222;28;20017;-69
2022/08/19 14:33:53;;;;;;;3.15;1.30;;;;;;;;;;5056192;28;20393;-67
2022/08/19 14:36:20;;;;;;;1.65;1.20;;;;;;;;;;5055872;28;20025;-69
2022/08/19 14:38:48;;;;;;;2.22;1.65;;;;;;;;;;5056097;28;20040;-68
2022/08/19 14:41:19;;;;;;;2.85;1.10;;;;;;;;;;5056306;28;20036;-69
2022/08/19 14:43:46;;;;;;;0.60;0.50;;;;;;;;;;5055785;28;20485;-69
2022/08/19 14:46:13;;;;;;;2.65;0.80;;;;;;;;;;5055619;28;20393;-68
2022/08/19 14:48:39;;;;;;;0.80;0.80;;;;;;;;;;5055629;28;20031;-69
2022/08/19 14:51:06;;;;;;;2.72;1.20;;;;;;;;;;5056137;28;20358;-68
2022/08/19 14:53:33;;;;;;;1.38;1.20;;;;;;;;;;5056049;28;20071;-69
2022/08/19 14:55:59;;;;;;;3.80;1.27;;;;;;;;;;5055211;28;20044;-69
2022/08/19 14:58:25;;;;;;;2.22;1.48;;;;;;;;;;5037581;28;20033;-68
2022/08/19 15:00:52;;;;;;;1.33;1.15;;;;;;;;;;5055346;28;20032;-67
2022/08/19 15:03:18;;;;;;;3.10;1.52;;;;;;;;;;5054621;28;20030;-68
2022/08/19 15:05:44;;;;;;;3.05;1.70;;;;;;;;;;5055261;28;20028;-67
2022/08/19 15:08:10;;;;;;;3.38;1.90;;;;;;;;;;5055517;28;20025;-68